Startpagina
METAR-TAF:

METAR-TAF

Vliegvelden :

Sleeswijk-Jagel, Duitsland

breedte: 54-28N, lengte: 009-31E, hoogte: 22 m

Actueel weer

Dit bericht is 1 uur en het 9 minuten geleden gemaakt, om 04:20 UTC
Wind 4 kt uit het oostnoordoosten
Temperatuur 17°C
Vochtigheid 94%
Druk 1020 hPa
Zicht 10 km of meer
Weinig wolken op 6000 ft

METAR: ETNS 260420Z 06004KT 9999 FEW060 17/16 Q1020 BLU+BLU+

Tijdstip: 07:29 (05:29 UTC)

Verwachting

Dit bericht is 1 uur en het 19 minuten geleden gemaakt, om 04:10 UTC
Verwachting geldig van 26 om 05 UTC tot 26 om 14 UTC
Wind 8 kt uit het oosten
Zicht 10 km of meer
Weinig wolken op 6000 ft
Kans 30%
van 26 om 05 UTC tot 26 om 06 UTC
Wind 3 kt uit variabele richting
Zicht: 5000 m
Verspreide wolken op 6000 ft
Ondiepe mist

TAF: ETNS 260410Z 2605/2614 10008KT 9999 NSW FEW060 PROB30 2605/2606 VRB03KT 5000 MIFG SCT060 BY ETGL

Waarnemingen en weersverwachtingen van meer dan 4000 vliegvelden (METAR en TAF).

De beschikbare stations zijn de gele en rode punten op de kaart.

Ga met uw muis naar het station om de naam te zien.

Klik dan om waarnemingen en weersverwachtingen te zien.

kaart wijzigen: klik op de groene knoppen met een zwart kruis om in te zoomen, op de groene knop met een streepje om uit te zoomen of op de groene pijlen voor aangrenzende kaarten.


METAR-TAF: